sensor_id;sensor_type;location;lat;lon;timestamp;temperature;humidity
546;DHT22;259;53.304;9.816;2022-10-22T00:02:23;17.60;95.40
546;DHT22;259;53.304;9.816;2022-10-22T00:04:50;17.70;95.40
546;DHT22;259;53.304;9.816;2022-10-22T00:07:17;17.60;95.40
546;DHT22;259;53.304;9.816;2022-10-22T00:09:42;17.60;95.40
546;DHT22;259;53.304;9.816;2022-10-22T00:12:08;17.60;95.40
546;DHT22;259;53.304;9.816;2022-10-22T00:14:34;17.60;95.40
546;DHT22;259;53.304;9.816;2022-10-22T00:16:59;17.60;95.40
546;DHT22;259;53.304;9.816;2022-10-22T00:19:26;17.60;95.40
546;DHT22;259;53.304;9.816;2022-10-22T00:21:52;17.60;95.40
546;DHT22;259;53.304;9.816;2022-10-22T00:24:17;17.60;95.50
546;DHT22;259;53.304;9.816;2022-10-22T00:26:43;17.60;95.50
546;DHT22;259;53.304;9.816;2022-10-22T00:29:08;17.60;95.50
546;DHT22;259;53.304;9.816;2022-10-22T00:31:34;17.60;95.50
546;DHT22;259;53.304;9.816;2022-10-22T00:34:00;17.60;95.50
546;DHT22;259;53.304;9.816;2022-10-22T00:36:26;17.60;95.50
546;DHT22;259;53.304;9.816;2022-10-22T00:38:51;17.60;95.50
546;DHT22;259;53.304;9.816;2022-10-22T00:41:17;17.60;95.50
546;DHT22;259;53.304;9.816;2022-10-22T00:44:03;17.50;95.50
546;DHT22;259;53.304;9.816;2022-10-22T00:46:29;17.60;95.90
546;DHT22;259;53.304;9.816;2022-10-22T00:48:57;17.50;95.50
546;DHT22;259;53.304;9.816;2022-10-22T00:51:25;17.50;95.50
546;DHT22;259;53.304;9.816;2022-10-22T00:53:54;17.60;95.60
546;DHT22;259;53.304;9.816;2022-10-22T00:56:22;17.50;95.50
546;DHT22;259;53.304;9.816;2022-10-22T00:58:53;17.50;95.50
546;DHT22;259;53.304;9.816;2022-10-22T01:01:26;17.50;95.50
546;DHT22;259;53.304;9.816;2022-10-22T01:03:52;17.50;95.50
546;DHT22;259;53.304;9.816;2022-10-22T01:06:30;17.50;95.50
546;DHT22;259;53.304;9.816;2022-10-22T01:12:09;17.50;95.60
546;DHT22;259;53.304;9.816;2022-10-22T01:14:45;17.60;95.60
546;DHT22;259;53.304;9.816;2022-10-22T01:17:29;17.50;95.60
546;DHT22;259;53.304;9.816;2022-10-22T01:26:12;17.50;95.60
546;DHT22;259;53.304;9.816;2022-10-22T01:31:23;17.50;95.70
546;DHT22;259;53.304;9.816;2022-10-22T01:33:52;17.50;95.60
546;DHT22;259;53.304;9.816;2022-10-22T01:36:19;17.50;95.70
546;DHT22;259;53.304;9.816;2022-10-22T01:38:46;17.50;95.60
546;DHT22;259;53.304;9.816;2022-10-22T01:41:12;17.50;95.60
546;DHT22;259;53.304;9.816;2022-10-22T01:43:38;17.50;95.70
546;DHT22;259;53.304;9.816;2022-10-22T01:46:05;17.40;95.60
546;DHT22;259;53.304;9.816;2022-10-22T01:48:44;17.50;95.60
546;DHT22;259;53.304;9.816;2022-10-22T01:51:38;17.40;95.60
546;DHT22;259;53.304;9.816;2022-10-22T01:54:29;17.40;95.60
546;DHT22;259;53.304;9.816;2022-10-22T01:59:59;17.40;95.60
546;DHT22;259;53.304;9.816;2022-10-22T02:05:32;17.40;95.60
546;DHT22;259;53.304;9.816;2022-10-22T02:08:13;17.40;95.70
546;DHT22;259;53.304;9.816;2022-10-22T02:10:42;17.40;95.70
546;DHT22;259;53.304;9.816;2022-10-22T02:13:12;17.40;95.70
546;DHT22;259;53.304;9.816;2022-10-22T02:15:39;17.40;95.70
546;DHT22;259;53.304;9.816;2022-10-22T02:18:07;17.40;95.70
546;DHT22;259;53.304;9.816;2022-10-22T02:20:35;17.40;95.70
546;DHT22;259;53.304;9.816;2022-10-22T02:23:02;17.30;95.70
546;DHT22;259;53.304;9.816;2022-10-22T02:25:35;17.30;95.70
546;DHT22;259;53.304;9.816;2022-10-22T02:30:46;17.40;95.70
546;DHT22;259;53.304;9.816;2022-10-22T02:33:24;17.40;95.80
546;DHT22;259;53.304;9.816;2022-10-22T02:35:51;17.30;95.70
546;DHT22;259;53.304;9.816;2022-10-22T02:38:18;17.30;95.70
546;DHT22;259;53.304;9.816;2022-10-22T02:40:44;17.30;95.70
546;DHT22;259;53.304;9.816;2022-10-22T02:43:09;17.30;95.70
546;DHT22;259;53.304;9.816;2022-10-22T02:45:35;17.30;96.10
546;DHT22;259;53.304;9.816;2022-10-22T02:48:02;17.30;95.80
546;DHT22;259;53.304;9.816;2022-10-22T02:50:27;17.30;95.70
546;DHT22;259;53.304;9.816;2022-10-22T02:52:53;17.30;95.70
546;DHT22;259;53.304;9.816;2022-10-22T02:55:18;17.30;95.80
546;DHT22;259;53.304;9.816;2022-10-22T02:57:44;17.30;95.80
546;DHT22;259;53.304;9.816;2022-10-22T03:00:10;17.30;95.80
546;DHT22;259;53.304;9.816;2022-10-22T03:02:36;17.30;95.80
546;DHT22;259;53.304;9.816;2022-10-22T03:05:02;17.30;95.80
546;DHT22;259;53.304;9.816;2022-10-22T03:07:28;17.30;95.80
546;DHT22;259;53.304;9.816;2022-10-22T03:09:53;17.30;95.80
546;DHT22;259;53.304;9.816;2022-10-22T03:12:19;17.30;95.80
546;DHT22;259;53.304;9.816;2022-10-22T03:14:45;17.30;95.80
546;DHT22;259;53.304;9.816;2022-10-22T03:17:10;17.30;95.80
546;DHT22;259;53.304;9.816;2022-10-22T03:19:36;17.30;95.80
546;DHT22;259;53.304;9.816;2022-10-22T03:22:36;17.30;95.80
546;DHT22;259;53.304;9.816;2022-10-22T03:24:57;17.30;95.80
546;DHT22;259;53.304;9.816;2022-10-22T03:27:27;17.20;95.70
546;DHT22;259;53.304;9.816;2022-10-22T03:29:52;17.20;95.70
546;DHT22;259;53.304;9.816;2022-10-22T03:32:19;17.20;95.80
546;DHT22;259;53.304;9.816;2022-10-22T03:34:44;17.20;95.80
546;DHT22;259;53.304;9.816;2022-10-22T03:37:10;17.20;95.90
546;DHT22;259;53.304;9.816;2022-10-22T03:39:37;17.20;95.80
546;DHT22;259;53.304;9.816;2022-10-22T03:42:04;17.20;95.80
546;DHT22;259;53.304;9.816;2022-10-22T03:44:31;17.20;95.80
546;DHT22;259;53.304;9.816;2022-10-22T03:46:57;17.20;95.80
546;DHT22;259;53.304;9.816;2022-10-22T03:49:23;17.20;95.80
546;DHT22;259;53.304;9.816;2022-10-22T03:51:48;17.20;95.80
546;DHT22;259;53.304;9.816;2022-10-22T03:54:15;17.20;95.80
546;DHT22;259;53.304;9.816;2022-10-22T03:56:41;17.20;96.20
546;DHT22;259;53.304;9.816;2022-10-22T03:59:06;17.20;95.80
546;DHT22;259;53.304;9.816;2022-10-22T04:01:32;17.20;95.80
546;DHT22;259;53.304;9.816;2022-10-22T04:03:58;17.10;95.80
546;DHT22;259;53.304;9.816;2022-10-22T04:06:23;17.10;95.80
546;DHT22;259;53.304;9.816;2022-10-22T04:08:49;17.10;95.80
546;DHT22;259;53.304;9.816;2022-10-22T04:11:16;17.10;95.80
546;DHT22;259;53.304;9.816;2022-10-22T04:13:42;17.10;95.90
546;DHT22;259;53.304;9.816;2022-10-22T04:16:16;17.10;95.90
546;DHT22;259;53.304;9.816;2022-10-22T04:18:43;17.10;95.90
546;DHT22;259;53.304;9.816;2022-10-22T04:21:11;17.10;95.90
546;DHT22;259;53.304;9.816;2022-10-22T04:23:37;17.10;95.90
546;DHT22;259;53.304;9.816;2022-10-22T04:26:05;17.10;95.90
546;DHT22;259;53.304;9.816;2022-10-22T04:28:31;17.10;95.90
546;DHT22;259;53.304;9.816;2022-10-22T04:30:57;17.10;95.90
546;DHT22;259;53.304;9.816;2022-10-22T04:33:22;17.10;95.90
546;DHT22;259;53.304;9.816;2022-10-22T04:35:48;17.10;95.90
546;DHT22;259;53.304;9.816;2022-10-22T04:38:14;17.10;96.30
546;DHT22;259;53.304;9.816;2022-10-22T04:40:40;17.00;95.90
546;DHT22;259;53.304;9.816;2022-10-22T04:43:06;17.10;95.90
546;DHT22;259;53.304;9.816;2022-10-22T04:45:33;17.10;95.90
546;DHT22;259;53.304;9.816;2022-10-22T04:47:58;17.10;95.90
546;DHT22;259;53.304;9.816;2022-10-22T04:50:24;17.10;95.90
546;DHT22;259;53.304;9.816;2022-10-22T04:52:50;17.10;96.00
546;DHT22;259;53.304;9.816;2022-10-22T04:55:15;17.10;95.90
546;DHT22;259;53.304;9.816;2022-10-22T04:57:41;17.10;95.90
546;DHT22;259;53.304;9.816;2022-10-22T05:00:07;17.10;95.90
546;DHT22;259;53.304;9.816;2022-10-22T05:02:32;17.00;95.90
546;DHT22;259;53.304;9.816;2022-10-22T05:04:58;17.00;95.90
546;DHT22;259;53.304;9.816;2022-10-22T05:07:23;17.00;95.90
546;DHT22;259;53.304;9.816;2022-10-22T05:09:49;17.00;95.90
546;DHT22;259;53.304;9.816;2022-10-22T05:12:15;17.00;95.90
546;DHT22;259;53.304;9.816;2022-10-22T05:14:40;17.00;95.90
546;DHT22;259;53.304;9.816;2022-10-22T05:17:06;17.00;95.90
546;DHT22;259;53.304;9.816;2022-10-22T05:19:31;17.00;95.90
546;DHT22;259;53.304;9.816;2022-10-22T05:21:59;17.00;95.90
546;DHT22;259;53.304;9.816;2022-10-22T05:24:26;17.00;95.90
546;DHT22;259;53.304;9.816;2022-10-22T05:26:53;16.90;95.90
546;DHT22;259;53.304;9.816;2022-10-22T05:29:20;17.00;95.90
546;DHT22;259;53.304;9.816;2022-10-22T05:31:45;17.00;96.00
546;DHT22;259;53.304;9.816;2022-10-22T05:34:11;17.00;96.00
546;DHT22;259;53.304;9.816;2022-10-22T05:36:37;17.00;96.00
546;DHT22;259;53.304;9.816;2022-10-22T05:39:03;17.00;96.00
546;DHT22;259;53.304;9.816;2022-10-22T05:41:29;16.90;96.00
546;DHT22;259;53.304;9.816;2022-10-22T05:43:56;16.90;95.90
546;DHT22;259;53.304;9.816;2022-10-22T05:46:23;16.90;96.00
546;DHT22;259;53.304;9.816;2022-10-22T05:49:00;16.90;96.00
546;DHT22;259;53.304;9.816;2022-10-22T05:51:29;16.90;96.00
546;DHT22;259;53.304;9.816;2022-10-22T05:54:00;16.90;96.00
546;DHT22;259;53.304;9.816;2022-10-22T05:56:27;16.90;96.00
546;DHT22;259;53.304;9.816;2022-10-22T05:58:53;16.90;96.10
546;DHT22;259;53.304;9.816;2022-10-22T06:01:27;16.80;96.00
546;DHT22;259;53.304;9.816;2022-10-22T06:03:57;16.80;96.00
546;DHT22;259;53.304;9.816;2022-10-22T06:06:33;16.90;96.10
546;DHT22;259;53.304;9.816;2022-10-22T06:09:04;16.90;96.10
546;DHT22;259;53.304;9.816;2022-10-22T06:11:31;16.80;96.10
546;DHT22;259;53.304;9.816;2022-10-22T06:13:56;16.80;96.10
546;DHT22;259;53.304;9.816;2022-10-22T06:16:22;16.80;96.10
546;DHT22;259;53.304;9.816;2022-10-22T06:18:48;16.80;96.10
546;DHT22;259;53.304;9.816;2022-10-22T06:21:14;16.80;96.10
546;DHT22;259;53.304;9.816;2022-10-22T06:23:41;16.80;96.40
546;DHT22;259;53.304;9.816;2022-10-22T06:26:08;16.80;96.10
546;DHT22;259;53.304;9.816;2022-10-22T06:28:35;16.80;96.10
546;DHT22;259;53.304;9.816;2022-10-22T06:31:02;16.80;96.50
546;DHT22;259;53.304;9.816;2022-10-22T06:33:29;16.80;96.10
546;DHT22;259;53.304;9.816;2022-10-22T06:36:04;16.80;96.40
546;DHT22;259;53.304;9.816;2022-10-22T06:38:29;16.80;96.10
546;DHT22;259;53.304;9.816;2022-10-22T06:40:55;16.80;96.10
546;DHT22;259;53.304;9.816;2022-10-22T06:43:20;16.80;96.10
546;DHT22;259;53.304;9.816;2022-10-22T06:45:46;16.80;96.10
546;DHT22;259;53.304;9.816;2022-10-22T06:48:11;16.80;96.10
546;DHT22;259;53.304;9.816;2022-10-22T06:50:37;16.80;96.00
546;DHT22;259;53.304;9.816;2022-10-22T06:53:02;16.80;96.00
546;DHT22;259;53.304;9.816;2022-10-22T06:55:28;16.80;96.00
546;DHT22;259;53.304;9.816;2022-10-22T06:57:54;16.80;96.00
546;DHT22;259;53.304;9.816;2022-10-22T07:00:19;16.70;96.00
546;DHT22;259;53.304;9.816;2022-10-22T07:02:49;16.70;96.00
546;DHT22;259;53.304;9.816;2022-10-22T07:05:17;16.80;96.00
546;DHT22;259;53.304;9.816;2022-10-22T07:07:42;16.80;96.10
546;DHT22;259;53.304;9.816;2022-10-22T07:10:08;16.80;96.10
546;DHT22;259;53.304;9.816;2022-10-22T07:12:34;16.80;96.10
546;DHT22;259;53.304;9.816;2022-10-22T07:14:59;16.70;96.00
546;DHT22;259;53.304;9.816;2022-10-22T07:17:25;16.70;96.00
546;DHT22;259;53.304;9.816;2022-10-22T07:19:50;16.70;96.10
546;DHT22;259;53.304;9.816;2022-10-22T07:22:16;16.70;96.10
546;DHT22;259;53.304;9.816;2022-10-22T07:24:41;16.70;96.10
546;DHT22;259;53.304;9.816;2022-10-22T07:27:07;16.70;96.10
546;DHT22;259;53.304;9.816;2022-10-22T07:29:32;16.70;96.10
546;DHT22;259;53.304;9.816;2022-10-22T07:31:59;16.70;96.10
546;DHT22;259;53.304;9.816;2022-10-22T07:34:24;16.70;96.10
546;DHT22;259;53.304;9.816;2022-10-22T07:36:50;16.70;96.20
546;DHT22;259;53.304;9.816;2022-10-22T07:39:15;16.70;96.20
546;DHT22;259;53.304;9.816;2022-10-22T07:41:41;16.70;96.10
546;DHT22;259;53.304;9.816;2022-10-22T07:44:06;16.70;96.10
546;DHT22;259;53.304;9.816;2022-10-22T07:46:32;16.70;96.20
546;DHT22;259;53.304;9.816;2022-10-22T07:48:59;16.70;96.20
546;DHT22;259;53.304;9.816;2022-10-22T07:51:25;16.60;96.20
546;DHT22;259;53.304;9.816;2022-10-22T07:53:51;16.70;96.20
546;DHT22;259;53.304;9.816;2022-10-22T07:56:17;16.60;96.20
546;DHT22;259;53.304;9.816;2022-10-22T07:58:42;16.60;96.20
546;DHT22;259;53.304;9.816;2022-10-22T08:01:08;16.60;96.20
546;DHT22;259;53.304;9.816;2022-10-22T08:03:34;16.60;96.20
546;DHT22;259;53.304;9.816;2022-10-22T08:06:00;16.60;96.20
546;DHT22;259;53.304;9.816;2022-10-22T08:08:25;16.60;96.20
546;DHT22;259;53.304;9.816;2022-10-22T08:10:52;16.60;96.20
546;DHT22;259;53.304;9.816;2022-10-22T08:13:18;16.60;96.20
546;DHT22;259;53.304;9.816;2022-10-22T08:15:44;16.60;96.20
546;DHT22;259;53.304;9.816;2022-10-22T08:18:11;16.60;96.20
546;DHT22;259;53.304;9.816;2022-10-22T08:20:37;16.50;96.20
546;DHT22;259;53.304;9.816;2022-10-22T08:23:02;16.60;96.20
546;DHT22;259;53.304;9.816;2022-10-22T08:25:28;16.60;96.20
546;DHT22;259;53.304;9.816;2022-10-22T08:27:54;16.60;96.20
546;DHT22;259;53.304;9.816;2022-10-22T08:30:19;16.50;96.50
546;DHT22;259;53.304;9.816;2022-10-22T08:32:45;16.50;96.10
546;DHT22;259;53.304;9.816;2022-10-22T08:35:11;16.60;96.20
546;DHT22;259;53.304;9.816;2022-10-22T08:37:36;16.60;96.20
546;DHT22;259;53.304;9.816;2022-10-22T08:40:03;16.60;96.20
546;DHT22;259;53.304;9.816;2022-10-22T08:43:22;16.60;96.20
546;DHT22;259;53.304;9.816;2022-10-22T08:50:49;16.60;96.20
546;DHT22;259;53.304;9.816;2022-10-22T08:53:22;16.60;96.20
546;DHT22;259;53.304;9.816;2022-10-22T08:55:52;16.60;96.20
546;DHT22;259;53.304;9.816;2022-10-22T08:58:31;16.60;96.20
546;DHT22;259;53.304;9.816;2022-10-22T09:01:05;16.60;96.20
546;DHT22;259;53.304;9.816;2022-10-22T09:03:52;16.60;96.20
546;DHT22;259;53.304;9.816;2022-10-22T09:06:23;16.50;96.20
546;DHT22;259;53.304;9.816;2022-10-22T09:08:51;16.60;96.20
546;DHT22;259;53.304;9.816;2022-10-22T09:13:54;16.50;96.20
546;DHT22;259;53.304;9.816;2022-10-22T09:25:13;16.90;97.30
546;DHT22;259;53.304;9.816;2022-10-22T09:27:40;17.20;97.00
546;DHT22;259;53.304;9.816;2022-10-22T09:30:10;17.70;96.30
546;DHT22;259;53.304;9.816;2022-10-22T09:32:38;18.10;95.60
546;DHT22;259;53.304;9.816;2022-10-22T09:35:03;18.40;94.90
546;DHT22;259;53.304;9.816;2022-10-22T09:37:33;18.70;94.30
546;DHT22;259;53.304;9.816;2022-10-22T09:40:04;19.00;93.80
546;DHT22;259;53.304;9.816;2022-10-22T09:42:30;19.30;93.30
546;DHT22;259;53.304;9.816;2022-10-22T09:44:58;19.50;92.90
546;DHT22;259;53.304;9.816;2022-10-22T09:47:34;19.70;92.80
546;DHT22;259;53.304;9.816;2022-10-22T09:50:27;19.90;92.30
546;DHT22;259;53.304;9.816;2022-10-22T09:53:10;20.10;91.90
546;DHT22;259;53.304;9.816;2022-10-22T09:55:38;20.40;91.50
546;DHT22;259;53.304;9.816;2022-10-22T09:58:08;20.60;91.20
546;DHT22;259;53.304;9.816;2022-10-22T10:00:38;20.70;90.80
546;DHT22;259;53.304;9.816;2022-10-22T10:03:04;20.90;90.40
546;DHT22;259;53.304;9.816;2022-10-22T10:05:32;21.10;90.10
546;DHT22;259;53.304;9.816;2022-10-22T10:07:58;21.20;89.80
546;DHT22;259;53.304;9.816;2022-10-22T10:13:10;21.50;89.30
546;DHT22;259;53.304;9.816;2022-10-22T10:16:00;21.60;88.60
546;DHT22;259;53.304;9.816;2022-10-22T10:24:03;22.00;88.80
546;DHT22;259;53.304;9.816;2022-10-22T10:30:00;22.20;88.10
546;DHT22;259;53.304;9.816;2022-10-22T10:51:03;22.90;87.10
546;DHT22;259;53.304;9.816;2022-10-22T10:53:46;22.90;87.00
546;DHT22;259;53.304;9.816;2022-10-22T10:56:29;23.00;86.60
546;DHT22;259;53.304;9.816;2022-10-22T10:59:15;23.10;86.20
546;DHT22;259;53.304;9.816;2022-10-22T11:05:12;23.20;86.10
546;DHT22;259;53.304;9.816;2022-10-22T11:07:48;23.30;86.20
546;DHT22;259;53.304;9.816;2022-10-22T11:10:33;23.30;86.00
546;DHT22;259;53.304;9.816;2022-10-22T11:15:40;23.30;85.60
546;DHT22;259;53.304;9.816;2022-10-22T11:18:20;23.30;86.40
546;DHT22;259;53.304;9.816;2022-10-22T11:20:54;23.20;86.30
546;DHT22;259;53.304;9.816;2022-10-22T11:23:33;23.20;86.70
546;DHT22;259;53.304;9.816;2022-10-22T11:26:09;23.10;86.90
546;DHT22;259;53.304;9.816;2022-10-22T11:28:49;23.00;87.50
546;DHT22;259;53.304;9.816;2022-10-22T11:31:16;23.00;88.00
546;DHT22;259;53.304;9.816;2022-10-22T11:33:57;22.90;88.70
546;DHT22;259;53.304;9.816;2022-10-22T11:36:26;22.80;89.50
546;DHT22;259;53.304;9.816;2022-10-22T11:38:53;22.70;90.10
546;DHT22;259;53.304;9.816;2022-10-22T11:41:23;22.60;90.30
546;DHT22;259;53.304;9.816;2022-10-22T11:43:57;22.50;90.60
546;DHT22;259;53.304;9.816;2022-10-22T11:46:38;22.40;91.00
546;DHT22;259;53.304;9.816;2022-10-22T11:49:17;22.30;91.40
546;DHT22;259;53.304;9.816;2022-10-22T11:51:45;22.20;91.80
546;DHT22;259;53.304;9.816;2022-10-22T11:54:40;22.10;92.10
546;DHT22;259;53.304;9.816;2022-10-22T11:57:16;22.10;92.50
546;DHT22;259;53.304;9.816;2022-10-22T12:02:30;22.00;93.00
546;DHT22;259;53.304;9.816;2022-10-22T12:05:18;21.90;92.80
546;DHT22;259;53.304;9.816;2022-10-22T12:08:24;21.80;92.90
546;DHT22;259;53.304;9.816;2022-10-22T12:21:42;21.50;93.60
546;DHT22;259;53.304;9.816;2022-10-22T12:24:13;21.40;93.50
546;DHT22;259;53.304;9.816;2022-10-22T12:26:39;21.40;93.50
546;DHT22;259;53.304;9.816;2022-10-22T12:29:10;21.40;93.50
546;DHT22;259;53.304;9.816;2022-10-22T12:31:38;21.30;93.50
546;DHT22;259;53.304;9.816;2022-10-22T12:34:05;21.30;93.50
546;DHT22;259;53.304;9.816;2022-10-22T12:36:33;21.30;93.50
546;DHT22;259;53.304;9.816;2022-10-22T12:39:00;21.20;93.50
546;DHT22;259;53.304;9.816;2022-10-22T12:41:31;21.20;93.50
546;DHT22;259;53.304;9.816;2022-10-22T12:44:01;21.10;93.50
546;DHT22;259;53.304;9.816;2022-10-22T12:46:29;21.10;93.60
546;DHT22;259;53.304;9.816;2022-10-22T12:48:58;21.00;93.60
546;DHT22;259;53.304;9.816;2022-10-22T12:51:25;21.00;93.70
546;DHT22;259;53.304;9.816;2022-10-22T12:53:56;20.90;93.80
546;DHT22;259;53.304;9.816;2022-10-22T12:56:32;20.90;93.90
546;DHT22;259;53.304;9.816;2022-10-22T12:59:34;20.80;93.90
546;DHT22;259;53.304;9.816;2022-10-22T13:02:00;20.80;94.00
546;DHT22;259;53.304;9.816;2022-10-22T13:04:32;20.80;94.10
546;DHT22;259;53.304;9.816;2022-10-22T13:12:27;20.70;94.20
546;DHT22;259;53.304;9.816;2022-10-22T13:14:53;20.70;94.30
546;DHT22;259;53.304;9.816;2022-10-22T13:17:35;20.60;94.40
546;DHT22;259;53.304;9.816;2022-10-22T13:20:04;20.60;94.40
546;DHT22;259;53.304;9.816;2022-10-22T13:22:35;20.60;94.50
546;DHT22;259;53.304;9.816;2022-10-22T13:27:46;20.50;94.60
546;DHT22;259;53.304;9.816;2022-10-22T13:35:40;20.40;94.70
546;DHT22;259;53.304;9.816;2022-10-22T13:38:16;20.40;94.80
546;DHT22;259;53.304;9.816;2022-10-22T13:40:42;20.40;94.90
546;DHT22;259;53.304;9.816;2022-10-22T13:43:08;20.40;94.90
546;DHT22;259;53.304;9.816;2022-10-22T13:45:33;20.30;94.90
546;DHT22;259;53.304;9.816;2022-10-22T13:47:59;20.30;95.00
546;DHT22;259;53.304;9.816;2022-10-22T13:50:24;20.30;95.10
546;DHT22;259;53.304;9.816;2022-10-22T13:52:53;20.30;95.30
546;DHT22;259;53.304;9.816;2022-10-22T13:55:28;20.30;95.30
546;DHT22;259;53.304;9.816;2022-10-22T13:57:56;20.30;95.30
546;DHT22;259;53.304;9.816;2022-10-22T14:00:22;20.30;95.30
546;DHT22;259;53.304;9.816;2022-10-22T14:02:53;20.30;95.70
546;DHT22;259;53.304;9.816;2022-10-22T14:05:19;20.30;95.30
546;DHT22;259;53.304;9.816;2022-10-22T14:07:45;20.30;95.50
546;DHT22;259;53.304;9.816;2022-10-22T14:10:19;20.20;95.40
546;DHT22;259;53.304;9.816;2022-10-22T14:12:46;20.30;95.50
546;DHT22;259;53.304;9.816;2022-10-22T14:15:13;20.20;95.50
546;DHT22;259;53.304;9.816;2022-10-22T14:17:41;20.20;95.50
546;DHT22;259;53.304;9.816;2022-10-22T14:20:19;20.20;95.50
546;DHT22;259;53.304;9.816;2022-10-22T14:22:47;20.20;95.60
546;DHT22;259;53.304;9.816;2022-10-22T14:25:15;20.10;95.60
546;DHT22;259;53.304;9.816;2022-10-22T14:27:41;20.10;95.60
546;DHT22;259;53.304;9.816;2022-10-22T14:30:08;20.10;95.70
546;DHT22;259;53.304;9.816;2022-10-22T14:32:34;20.10;95.70
546;DHT22;259;53.304;9.816;2022-10-22T14:34:59;20.10;95.70
546;DHT22;259;53.304;9.816;2022-10-22T14:37:26;20.10;95.70
546;DHT22;259;53.304;9.816;2022-10-22T14:39:51;20.10;95.80
546;DHT22;259;53.304;9.816;2022-10-22T14:42:24;20.00;95.70
546;DHT22;259;53.304;9.816;2022-10-22T14:44:50;20.00;95.80
546;DHT22;259;53.304;9.816;2022-10-22T14:47:16;20.00;95.80
546;DHT22;259;53.304;9.816;2022-10-22T14:49:41;20.00;95.90
546;DHT22;259;53.304;9.816;2022-10-22T14:52:07;20.00;95.90
546;DHT22;259;53.304;9.816;2022-10-22T14:54:32;19.90;95.90
546;DHT22;259;53.304;9.816;2022-10-22T14:57:02;19.90;95.90
546;DHT22;259;53.304;9.816;2022-10-22T14:59:29;19.90;95.90
546;DHT22;259;53.304;9.816;2022-10-22T15:01:55;19.90;96.30
546;DHT22;259;53.304;9.816;2022-10-22T15:04:21;19.80;95.90
546;DHT22;259;53.304;9.816;2022-10-22T15:06:46;19.80;95.90
546;DHT22;259;53.304;9.816;2022-10-22T15:09:12;19.80;95.90
546;DHT22;259;53.304;9.816;2022-10-22T15:11:37;19.80;96.00
546;DHT22;259;53.304;9.816;2022-10-22T15:14:03;19.80;96.00
546;DHT22;259;53.304;9.816;2022-10-22T15:16:29;19.80;96.00
546;DHT22;259;53.304;9.816;2022-10-22T15:18:54;19.80;96.00
546;DHT22;259;53.304;9.816;2022-10-22T15:21:21;19.80;96.00
546;DHT22;259;53.304;9.816;2022-10-22T15:23:48;19.80;96.10
546;DHT22;259;53.304;9.816;2022-10-22T15:26:14;19.80;96.10
546;DHT22;259;53.304;9.816;2022-10-22T15:28:40;19.70;96.10
546;DHT22;259;53.304;9.816;2022-10-22T15:31:06;19.70;96.20
546;DHT22;259;53.304;9.816;2022-10-22T15:33:33;19.70;96.20
546;DHT22;259;53.304;9.816;2022-10-22T15:36:09;19.70;96.20
546;DHT22;259;53.304;9.816;2022-10-22T15:38:34;19.70;96.20
546;DHT22;259;53.304;9.816;2022-10-22T15:41:05;19.70;96.20
546;DHT22;259;53.304;9.816;2022-10-22T15:43:31;19.70;96.30
546;DHT22;259;53.304;9.816;2022-10-22T15:46:15;19.70;96.40
546;DHT22;259;53.304;9.816;2022-10-22T15:48:41;19.70;96.40
546;DHT22;259;53.304;9.816;2022-10-22T15:51:14;19.70;96.40
546;DHT22;259;53.304;9.816;2022-10-22T15:53:41;19.60;96.30
546;DHT22;259;53.304;9.816;2022-10-22T15:56:07;19.60;96.30
546;DHT22;259;53.304;9.816;2022-10-22T15:58:33;19.60;96.30
546;DHT22;259;53.304;9.816;2022-10-22T16:01:07;19.60;96.30
546;DHT22;259;53.304;9.816;2022-10-22T16:03:33;19.60;96.30
546;DHT22;259;53.304;9.816;2022-10-22T16:05:59;19.60;96.30
546;DHT22;259;53.304;9.816;2022-10-22T16:08:25;19.60;96.40
546;DHT22;259;53.304;9.816;2022-10-22T16:10:51;19.60;96.30
546;DHT22;259;53.304;9.816;2022-10-22T16:13:18;19.60;96.30
546;DHT22;259;53.304;9.816;2022-10-22T16:15:45;19.60;96.40
546;DHT22;259;53.304;9.816;2022-10-22T16:18:11;19.60;96.40
546;DHT22;259;53.304;9.816;2022-10-22T16:20:40;19.60;96.40
546;DHT22;259;53.304;9.816;2022-10-22T16:23:06;19.50;96.30
546;DHT22;259;53.304;9.816;2022-10-22T16:25:41;19.50;96.30
546;DHT22;259;53.304;9.816;2022-10-22T16:28:08;19.50;96.40
546;DHT22;259;53.304;9.816;2022-10-22T16:30:36;19.50;96.40
546;DHT22;259;53.304;9.816;2022-10-22T16:33:02;19.50;96.40
546;DHT22;259;53.304;9.816;2022-10-22T16:35:29;19.50;96.40
546;DHT22;259;53.304;9.816;2022-10-22T16:37:55;19.50;96.40
546;DHT22;259;53.304;9.816;2022-10-22T16:40:20;19.50;96.40
546;DHT22;259;53.304;9.816;2022-10-22T16:42:46;19.50;96.40
546;DHT22;259;53.304;9.816;2022-10-22T16:45:11;19.50;96.40
546;DHT22;259;53.304;9.816;2022-10-22T16:47:37;19.50;96.40
546;DHT22;259;53.304;9.816;2022-10-22T16:50:04;19.60;96.50
546;DHT22;259;53.304;9.816;2022-10-22T16:52:31;19.80;96.30
546;DHT22;259;53.304;9.816;2022-10-22T16:54:56;20.10;95.80
546;DHT22;259;53.304;9.816;2022-10-22T16:57:23;20.50;95.20
546;DHT22;259;53.304;9.816;2022-10-22T16:59:48;20.80;94.50
546;DHT22;259;53.304;9.816;2022-10-22T17:02:14;21.10;93.80
546;DHT22;259;53.304;9.816;2022-10-22T17:04:40;21.40;93.30
546;DHT22;259;53.304;9.816;2022-10-22T17:07:05;21.50;92.80
546;DHT22;259;53.304;9.816;2022-10-22T17:09:31;21.70;92.50
546;DHT22;259;53.304;9.816;2022-10-22T17:11:56;21.80;92.30
546;DHT22;259;53.304;9.816;2022-10-22T17:14:22;21.80;92.10
546;DHT22;259;53.304;9.816;2022-10-22T17:16:48;21.90;92.10
546;DHT22;259;53.304;9.816;2022-10-22T17:19:19;21.90;92.00
546;DHT22;259;53.304;9.816;2022-10-22T17:21:45;21.90;91.90
546;DHT22;259;53.304;9.816;2022-10-22T17:24:13;21.80;91.90
546;DHT22;259;53.304;9.816;2022-10-22T17:26:39;21.80;91.90
546;DHT22;259;53.304;9.816;2022-10-22T17:29:04;21.80;91.90
546;DHT22;259;53.304;9.816;2022-10-22T17:31:32;21.80;92.00
546;DHT22;259;53.304;9.816;2022-10-22T17:34:00;21.70;92.00
546;DHT22;259;53.304;9.816;2022-10-22T17:36:27;21.70;92.10
546;DHT22;259;53.304;9.816;2022-10-22T17:38:55;21.60;92.10
546;DHT22;259;53.304;9.816;2022-10-22T17:41:23;21.60;92.20
546;DHT22;259;53.304;9.816;2022-10-22T17:43:49;21.60;92.30
546;DHT22;259;53.304;9.816;2022-10-22T17:46:24;21.50;92.30
546;DHT22;259;53.304;9.816;2022-10-22T17:48:51;21.50;92.50
546;DHT22;259;53.304;9.816;2022-10-22T17:51:17;21.40;92.50
546;DHT22;259;53.304;9.816;2022-10-22T17:53:43;21.30;92.60
546;DHT22;259;53.304;9.816;2022-10-22T17:56:16;21.30;92.70
546;DHT22;259;53.304;9.816;2022-10-22T17:58:41;21.20;92.80
546;DHT22;259;53.304;9.816;2022-10-22T18:03:46;21.20;93.10
546;DHT22;259;53.304;9.816;2022-10-22T18:06:12;21.10;93.10
546;DHT22;259;53.304;9.816;2022-10-22T18:08:38;21.10;93.20
546;DHT22;259;53.304;9.816;2022-10-22T18:11:06;21.00;93.30
546;DHT22;259;53.304;9.816;2022-10-22T18:13:32;21.00;93.40
546;DHT22;259;53.304;9.816;2022-10-22T18:15:57;20.90;93.40
546;DHT22;259;53.304;9.816;2022-10-22T18:18:23;20.90;93.50
546;DHT22;259;53.304;9.816;2022-10-22T18:20:51;20.60;93.50
546;DHT22;259;53.304;9.816;2022-10-22T18:23:17;20.80;93.70
546;DHT22;259;53.304;9.816;2022-10-22T18:25:43;20.80;93.80
546;DHT22;259;53.304;9.816;2022-10-22T18:28:11;20.70;93.80